sensor_id;sensor_type;location;lat;lon;timestamp;temperature;humidity
13928;DHT22;7036;50.834;4.718;2023-04-06T00:01:47;18.00;48.90
13928;DHT22;7036;50.834;4.718;2023-04-06T00:04:39;18.00;48.90
13928;DHT22;7036;50.834;4.718;2023-04-06T00:07:33;18.00;48.90
13928;DHT22;7036;50.834;4.718;2023-04-06T00:09:59;18.00;48.90
13928;DHT22;7036;50.834;4.718;2023-04-06T00:12:26;17.90;48.90
13928;DHT22;7036;50.834;4.718;2023-04-06T00:14:53;18.00;48.90
13928;DHT22;7036;50.834;4.718;2023-04-06T00:17:21;18.00;48.90
13928;DHT22;7036;50.834;4.718;2023-04-06T00:19:50;17.90;48.90
13928;DHT22;7036;50.834;4.718;2023-04-06T00:22:21;18.00;48.80
13928;DHT22;7036;50.834;4.718;2023-04-06T00:24:44;18.00;48.80
13928;DHT22;7036;50.834;4.718;2023-04-06T00:27:12;17.90;48.90
13928;DHT22;7036;50.834;4.718;2023-04-06T00:29:39;17.90;48.70
13928;DHT22;7036;50.834;4.718;2023-04-06T00:32:07;17.90;48.10
13928;DHT22;7036;50.834;4.718;2023-04-06T00:34:34;17.90;48.80
13928;DHT22;7036;50.834;4.718;2023-04-06T00:37:02;17.90;49.10
13928;DHT22;7036;50.834;4.718;2023-04-06T00:39:29;17.90;48.70
13928;DHT22;7036;50.834;4.718;2023-04-06T00:41:57;17.90;48.80
13928;DHT22;7036;50.834;4.718;2023-04-06T00:44:27;17.90;48.80
13928;DHT22;7036;50.834;4.718;2023-04-06T00:46:54;17.90;48.70
13928;DHT22;7036;50.834;4.718;2023-04-06T00:49:21;17.90;48.70
13928;DHT22;7036;50.834;4.718;2023-04-06T00:51:48;17.90;48.60
13928;DHT22;7036;50.834;4.718;2023-04-06T00:54:15;17.90;48.70
13928;DHT22;7036;50.834;4.718;2023-04-06T00:56:44;17.90;48.60
13928;DHT22;7036;50.834;4.718;2023-04-06T00:59:11;17.80;48.70
13928;DHT22;7036;50.834;4.718;2023-04-06T01:01:38;17.80;48.80
13928;DHT22;7036;50.834;4.718;2023-04-06T01:04:06;17.80;48.90
13928;DHT22;7036;50.834;4.718;2023-04-06T01:06:34;17.80;48.70
13928;DHT22;7036;50.834;4.718;2023-04-06T01:09:02;17.80;48.70
13928;DHT22;7036;50.834;4.718;2023-04-06T01:11:30;17.80;48.60
13928;DHT22;7036;50.834;4.718;2023-04-06T01:13:58;17.80;48.80
13928;DHT22;7036;50.834;4.718;2023-04-06T01:16:25;17.80;48.60
13928;DHT22;7036;50.834;4.718;2023-04-06T01:18:52;17.80;48.60
13928;DHT22;7036;50.834;4.718;2023-04-06T01:21:20;17.80;48.70
13928;DHT22;7036;50.834;4.718;2023-04-06T01:23:47;17.80;48.60
13928;DHT22;7036;50.834;4.718;2023-04-06T01:26:17;17.80;48.40
13928;DHT22;7036;50.834;4.718;2023-04-06T01:28:44;17.70;48.60
13928;DHT22;7036;50.834;4.718;2023-04-06T01:31:11;17.80;48.60
13928;DHT22;7036;50.834;4.718;2023-04-06T01:33:39;17.80;48.60
13928;DHT22;7036;50.834;4.718;2023-04-06T01:36:06;17.80;48.60
13928;DHT22;7036;50.834;4.718;2023-04-06T01:38:34;17.80;48.60
13928;DHT22;7036;50.834;4.718;2023-04-06T01:41:03;17.70;48.50
13928;DHT22;7036;50.834;4.718;2023-04-06T01:43:30;17.70;48.50
13928;DHT22;7036;50.834;4.718;2023-04-06T01:45:57;17.70;48.50
13928;DHT22;7036;50.834;4.718;2023-04-06T01:48:28;17.70;48.50
13928;DHT22;7036;50.834;4.718;2023-04-06T01:50:52;17.70;48.50
13928;DHT22;7036;50.834;4.718;2023-04-06T01:53:21;17.70;48.60
13928;DHT22;7036;50.834;4.718;2023-04-06T01:55:48;17.70;48.50
13928;DHT22;7036;50.834;4.718;2023-04-06T01:58:16;17.70;48.60
13928;DHT22;7036;50.834;4.718;2023-04-06T02:00:43;17.70;48.60
13928;DHT22;7036;50.834;4.718;2023-04-06T02:03:11;17.70;48.60
13928;DHT22;7036;50.834;4.718;2023-04-06T02:05:39;17.70;48.60
13928;DHT22;7036;50.834;4.718;2023-04-06T02:08:07;17.70;48.50
13928;DHT22;7036;50.834;4.718;2023-04-06T02:10:34;17.70;48.60
13928;DHT22;7036;50.834;4.718;2023-04-06T02:13:02;17.70;48.70
13928;DHT22;7036;50.834;4.718;2023-04-06T02:15:30;17.70;48.50
13928;DHT22;7036;50.834;4.718;2023-04-06T02:17:58;17.70;48.70
13928;DHT22;7036;50.834;4.718;2023-04-06T02:20:26;17.70;48.70
13928;DHT22;7036;50.834;4.718;2023-04-06T02:22:56;17.70;48.60
13928;DHT22;7036;50.834;4.718;2023-04-06T02:25:22;17.70;48.60
13928;DHT22;7036;50.834;4.718;2023-04-06T02:27:49;17.70;48.50
13928;DHT22;7036;50.834;4.718;2023-04-06T02:30:16;17.70;48.50
13928;DHT22;7036;50.834;4.718;2023-04-06T02:32:43;17.60;48.50
13928;DHT22;7036;50.834;4.718;2023-04-06T02:35:11;17.70;48.50
13928;DHT22;7036;50.834;4.718;2023-04-06T02:37:38;17.70;48.50
13928;DHT22;7036;50.834;4.718;2023-04-06T02:40:07;17.60;48.50
13928;DHT22;7036;50.834;4.718;2023-04-06T02:42:34;17.60;48.60
13928;DHT22;7036;50.834;4.718;2023-04-06T02:45:01;17.60;48.50
13928;DHT22;7036;50.834;4.718;2023-04-06T02:47:29;17.60;48.60
13928;DHT22;7036;50.834;4.718;2023-04-06T02:49:55;17.60;48.50
13928;DHT22;7036;50.834;4.718;2023-04-06T02:52:24;17.60;48.60
13928;DHT22;7036;50.834;4.718;2023-04-06T02:54:52;17.60;48.60
13928;DHT22;7036;50.834;4.718;2023-04-06T02:57:20;17.60;48.70
13928;DHT22;7036;50.834;4.718;2023-04-06T02:59:48;17.60;48.60
13928;DHT22;7036;50.834;4.718;2023-04-06T03:02:16;17.60;48.60
13928;DHT22;7036;50.834;4.718;2023-04-06T03:04:45;17.60;48.70
13928;DHT22;7036;50.834;4.718;2023-04-06T03:07:13;17.60;48.50
13928;DHT22;7036;50.834;4.718;2023-04-06T03:09:39;17.60;48.50
13928;DHT22;7036;50.834;4.718;2023-04-06T03:12:06;17.60;48.50
13928;DHT22;7036;50.834;4.718;2023-04-06T03:14:35;17.50;48.60
13928;DHT22;7036;50.834;4.718;2023-04-06T03:17:01;17.50;48.40
13928;DHT22;7036;50.834;4.718;2023-04-06T03:19:28;17.60;48.50
13928;DHT22;7036;50.834;4.718;2023-04-06T03:21:58;17.50;48.60
13928;DHT22;7036;50.834;4.718;2023-04-06T03:24:25;17.50;48.50
13928;DHT22;7036;50.834;4.718;2023-04-06T03:26:53;17.60;48.50
13928;DHT22;7036;50.834;4.718;2023-04-06T03:29:21;17.60;48.50
13928;DHT22;7036;50.834;4.718;2023-04-06T03:31:49;17.50;48.50
13928;DHT22;7036;50.834;4.718;2023-04-06T03:34:17;17.50;48.60
13928;DHT22;7036;50.834;4.718;2023-04-06T03:36:44;17.50;48.40
13928;DHT22;7036;50.834;4.718;2023-04-06T03:39:12;17.50;48.60
13928;DHT22;7036;50.834;4.718;2023-04-06T03:41:40;17.50;48.60
13928;DHT22;7036;50.834;4.718;2023-04-06T03:44:08;17.50;48.60
13928;DHT22;7036;50.834;4.718;2023-04-06T03:46:35;17.50;48.40
13928;DHT22;7036;50.834;4.718;2023-04-06T03:49:03;17.50;48.60
13928;DHT22;7036;50.834;4.718;2023-04-06T03:51:31;17.50;48.40
13928;DHT22;7036;50.834;4.718;2023-04-06T03:53:58;17.50;48.50
13928;DHT22;7036;50.834;4.718;2023-04-06T03:56:26;17.50;48.50
13928;DHT22;7036;50.834;4.718;2023-04-06T03:58:54;17.50;48.50
13928;DHT22;7036;50.834;4.718;2023-04-06T04:01:22;17.50;48.50
13928;DHT22;7036;50.834;4.718;2023-04-06T04:03:50;17.50;48.60
13928;DHT22;7036;50.834;4.718;2023-04-06T04:06:18;17.40;48.40
13928;DHT22;7036;50.834;4.718;2023-04-06T04:08:45;17.50;48.50
13928;DHT22;7036;50.834;4.718;2023-04-06T04:11:13;17.40;49.00
13928;DHT22;7036;50.834;4.718;2023-04-06T04:13:41;17.40;48.40
13928;DHT22;7036;50.834;4.718;2023-04-06T04:16:09;17.40;48.50
13928;DHT22;7036;50.834;4.718;2023-04-06T04:18:42;17.40;48.60
13928;DHT22;7036;50.834;4.718;2023-04-06T04:21:09;17.40;48.50
13928;DHT22;7036;50.834;4.718;2023-04-06T04:23:39;17.40;48.50
13928;DHT22;7036;50.834;4.718;2023-04-06T04:26:05;17.40;48.50
13928;DHT22;7036;50.834;4.718;2023-04-06T04:28:33;17.40;48.60
13928;DHT22;7036;50.834;4.718;2023-04-06T04:31:01;17.40;48.60
13928;DHT22;7036;50.834;4.718;2023-04-06T04:33:29;17.40;48.60
13928;DHT22;7036;50.834;4.718;2023-04-06T04:35:58;17.40;48.50
13928;DHT22;7036;50.834;4.718;2023-04-06T04:38:25;17.40;48.40
13928;DHT22;7036;50.834;4.718;2023-04-06T04:40:52;17.40;48.40
13928;DHT22;7036;50.834;4.718;2023-04-06T04:43:19;17.40;48.40
13928;DHT22;7036;50.834;4.718;2023-04-06T04:45:47;17.40;48.50
13928;DHT22;7036;50.834;4.718;2023-04-06T04:48:16;17.40;48.60
13928;DHT22;7036;50.834;4.718;2023-04-06T04:50:42;17.40;48.40
13928;DHT22;7036;50.834;4.718;2023-04-06T04:53:10;17.40;48.40
13928;DHT22;7036;50.834;4.718;2023-04-06T04:55:38;17.40;48.60
13928;DHT22;7036;50.834;4.718;2023-04-06T04:58:06;17.40;48.60
13928;DHT22;7036;50.834;4.718;2023-04-06T05:00:34;17.40;48.60
13928;DHT22;7036;50.834;4.718;2023-04-06T05:03:02;17.40;48.60
13928;DHT22;7036;50.834;4.718;2023-04-06T05:05:29;17.40;48.60
13928;DHT22;7036;50.834;4.718;2023-04-06T05:07:57;17.40;48.60
13928;DHT22;7036;50.834;4.718;2023-04-06T05:10:25;17.40;48.60
13928;DHT22;7036;50.834;4.718;2023-04-06T05:12:54;17.30;48.40
13928;DHT22;7036;50.834;4.718;2023-04-06T05:15:20;17.30;48.40
13928;DHT22;7036;50.834;4.718;2023-04-06T05:17:48;17.30;48.50
13928;DHT22;7036;50.834;4.718;2023-04-06T05:20:16;17.30;48.40
13928;DHT22;7036;50.834;4.718;2023-04-06T05:22:44;17.30;48.50
13928;DHT22;7036;50.834;4.718;2023-04-06T05:25:11;17.30;48.40
13928;DHT22;7036;50.834;4.718;2023-04-06T05:27:39;17.30;48.50
13928;DHT22;7036;50.834;4.718;2023-04-06T05:30:07;17.30;48.50
13928;DHT22;7036;50.834;4.718;2023-04-06T05:32:34;17.30;48.40
13928;DHT22;7036;50.834;4.718;2023-04-06T05:35:02;17.30;48.60
13928;DHT22;7036;50.834;4.718;2023-04-06T05:37:30;17.30;48.60
13928;DHT22;7036;50.834;4.718;2023-04-06T05:39:57;17.30;48.50
13928;DHT22;7036;50.834;4.718;2023-04-06T05:42:25;17.30;48.50
13928;DHT22;7036;50.834;4.718;2023-04-06T05:44:53;17.30;48.60
13928;DHT22;7036;50.834;4.718;2023-04-06T05:47:21;17.30;48.60
13928;DHT22;7036;50.834;4.718;2023-04-06T05:49:49;17.30;48.60
13928;DHT22;7036;50.834;4.718;2023-04-06T05:52:16;17.30;48.50
13928;DHT22;7036;50.834;4.718;2023-04-06T05:54:43;17.20;48.50
13928;DHT22;7036;50.834;4.718;2023-04-06T05:57:11;17.30;48.70
13928;DHT22;7036;50.834;4.718;2023-04-06T05:59:40;17.30;48.60
13928;DHT22;7036;50.834;4.718;2023-04-06T06:02:07;17.30;48.50
13928;DHT22;7036;50.834;4.718;2023-04-06T06:04:35;17.30;48.70
13928;DHT22;7036;50.834;4.718;2023-04-06T06:07:05;17.30;48.70
13928;DHT22;7036;50.834;4.718;2023-04-06T06:09:31;17.20;48.50
13928;DHT22;7036;50.834;4.718;2023-04-06T06:11:59;17.30;48.70
13928;DHT22;7036;50.834;4.718;2023-04-06T06:14:26;17.20;48.50
13928;DHT22;7036;50.834;4.718;2023-04-06T06:16:54;17.30;48.80
13928;DHT22;7036;50.834;4.718;2023-04-06T06:19:22;17.30;48.80
13928;DHT22;7036;50.834;4.718;2023-04-06T06:21:49;17.20;48.60
13928;DHT22;7036;50.834;4.718;2023-04-06T06:24:17;17.20;48.80
13928;DHT22;7036;50.834;4.718;2023-04-06T06:26:45;17.20;48.90
13928;DHT22;7036;50.834;4.718;2023-04-06T06:29:12;17.20;48.80
13928;DHT22;7036;50.834;4.718;2023-04-06T06:31:40;17.20;48.80
13928;DHT22;7036;50.834;4.718;2023-04-06T06:34:08;17.30;49.00
13928;DHT22;7036;50.834;4.718;2023-04-06T06:36:36;17.30;48.80
13928;DHT22;7036;50.834;4.718;2023-04-06T06:39:03;17.30;48.70
13928;DHT22;7036;50.834;4.718;2023-04-06T06:41:31;17.30;48.80
13928;DHT22;7036;50.834;4.718;2023-04-06T06:44:02;17.20;48.80
13928;DHT22;7036;50.834;4.718;2023-04-06T06:46:29;17.20;48.80
13928;DHT22;7036;50.834;4.718;2023-04-06T06:48:58;17.20;48.80
13928;DHT22;7036;50.834;4.718;2023-04-06T06:51:25;17.20;48.80
13928;DHT22;7036;50.834;4.718;2023-04-06T06:53:53;17.20;48.80
13928;DHT22;7036;50.834;4.718;2023-04-06T06:56:20;17.20;48.80
13928;DHT22;7036;50.834;4.718;2023-04-06T06:58:48;17.20;49.00
13928;DHT22;7036;50.834;4.718;2023-04-06T07:01:16;17.20;49.00
13928;DHT22;7036;50.834;4.718;2023-04-06T07:03:44;17.20;49.00
13928;DHT22;7036;50.834;4.718;2023-04-06T07:06:11;17.20;48.90
13928;DHT22;7036;50.834;4.718;2023-04-06T07:08:39;17.40;48.90
13928;DHT22;7036;50.834;4.718;2023-04-06T07:11:07;17.40;48.80
13928;DHT22;7036;50.834;4.718;2023-04-06T07:13:35;17.60;49.00
13928;DHT22;7036;50.834;4.718;2023-04-06T07:16:04;17.70;48.80
13928;DHT22;7036;50.834;4.718;2023-04-06T07:18:30;17.70;48.70
13928;DHT22;7036;50.834;4.718;2023-04-06T07:20:58;17.90;48.60
13928;DHT22;7036;50.834;4.718;2023-04-06T07:23:25;17.90;48.60
13928;DHT22;7036;50.834;4.718;2023-04-06T07:25:53;17.90;48.50
13928;DHT22;7036;50.834;4.718;2023-04-06T07:28:21;18.00;48.40
13928;DHT22;7036;50.834;4.718;2023-04-06T07:30:47;18.00;48.40
13928;DHT22;7036;50.834;4.718;2023-04-06T07:33:15;18.10;48.50
13928;DHT22;7036;50.834;4.718;2023-04-06T07:35:42;18.20;48.50
13928;DHT22;7036;50.834;4.718;2023-04-06T07:38:10;18.20;48.50
13928;DHT22;7036;50.834;4.718;2023-04-06T07:40:37;18.20;48.50
13928;DHT22;7036;50.834;4.718;2023-04-06T07:43:05;18.30;48.60
13928;DHT22;7036;50.834;4.718;2023-04-06T07:45:33;18.30;48.50
13928;DHT22;7036;50.834;4.718;2023-04-06T07:48:01;18.30;48.40
13928;DHT22;7036;50.834;4.718;2023-04-06T07:50:29;18.40;48.40
13928;DHT22;7036;50.834;4.718;2023-04-06T07:52:57;18.40;48.40
13928;DHT22;7036;50.834;4.718;2023-04-06T07:55:25;18.40;48.40
13928;DHT22;7036;50.834;4.718;2023-04-06T07:57:52;18.40;48.30
13928;DHT22;7036;50.834;4.718;2023-04-06T08:00:20;18.40;48.30
13928;DHT22;7036;50.834;4.718;2023-04-06T08:02:47;18.40;48.40
13928;DHT22;7036;50.834;4.718;2023-04-06T08:05:15;18.40;48.20
13928;DHT22;7036;50.834;4.718;2023-04-06T08:07:41;18.40;48.30
13928;DHT22;7036;50.834;4.718;2023-04-06T08:10:10;18.40;48.40
13928;DHT22;7036;50.834;4.718;2023-04-06T08:12:38;18.40;48.40
13928;DHT22;7036;50.834;4.718;2023-04-06T08:15:06;18.40;48.30
13928;DHT22;7036;50.834;4.718;2023-04-06T08:17:32;18.40;48.30
13928;DHT22;7036;50.834;4.718;2023-04-06T08:20:00;18.40;48.30
13928;DHT22;7036;50.834;4.718;2023-04-06T08:22:27;18.40;48.40
13928;DHT22;7036;50.834;4.718;2023-04-06T08:24:55;18.40;48.60
13928;DHT22;7036;50.834;4.718;2023-04-06T08:27:24;18.40;48.80
13928;DHT22;7036;50.834;4.718;2023-04-06T08:29:51;18.40;48.60
13928;DHT22;7036;50.834;4.718;2023-04-06T08:32:18;18.40;48.70
13928;DHT22;7036;50.834;4.718;2023-04-06T08:34:46;18.40;49.10
13928;DHT22;7036;50.834;4.718;2023-04-06T08:37:13;18.40;48.90
13928;DHT22;7036;50.834;4.718;2023-04-06T08:39:40;18.50;49.00
13928;DHT22;7036;50.834;4.718;2023-04-06T08:42:10;18.50;49.10
13928;DHT22;7036;50.834;4.718;2023-04-06T08:44:36;18.50;49.20
13928;DHT22;7036;50.834;4.718;2023-04-06T08:47:04;18.50;49.30
13928;DHT22;7036;50.834;4.718;2023-04-06T08:49:32;18.50;49.30
13928;DHT22;7036;50.834;4.718;2023-04-06T08:52:00;18.50;49.40
13928;DHT22;7036;50.834;4.718;2023-04-06T08:54:27;18.50;49.30
13928;DHT22;7036;50.834;4.718;2023-04-06T08:56:54;18.50;48.70
13928;DHT22;7036;50.834;4.718;2023-04-06T08:59:21;18.50;49.30
13928;DHT22;7036;50.834;4.718;2023-04-06T09:01:49;18.50;49.40
13928;DHT22;7036;50.834;4.718;2023-04-06T09:04:17;18.50;49.50
13928;DHT22;7036;50.834;4.718;2023-04-06T09:06:45;18.60;49.60
13928;DHT22;7036;50.834;4.718;2023-04-06T09:09:13;18.60;49.50
13928;DHT22;7036;50.834;4.718;2023-04-06T09:11:45;18.60;49.50
13928;DHT22;7036;50.834;4.718;2023-04-06T09:14:11;18.60;49.40
13928;DHT22;7036;50.834;4.718;2023-04-06T09:16:39;18.60;49.70
13928;DHT22;7036;50.834;4.718;2023-04-06T09:19:09;18.60;49.70
13928;DHT22;7036;50.834;4.718;2023-04-06T09:21:35;18.60;49.60
13928;DHT22;7036;50.834;4.718;2023-04-06T09:24:03;18.60;49.60
13928;DHT22;7036;50.834;4.718;2023-04-06T09:26:45;18.60;49.60
13928;DHT22;7036;50.834;4.718;2023-04-06T09:29:22;18.60;49.70
13928;DHT22;7036;50.834;4.718;2023-04-06T09:31:39;18.60;49.60
13928;DHT22;7036;50.834;4.718;2023-04-06T09:34:06;18.60;49.60
13928;DHT22;7036;50.834;4.718;2023-04-06T09:36:34;18.60;49.60
13928;DHT22;7036;50.834;4.718;2023-04-06T09:39:04;18.60;49.60
13928;DHT22;7036;50.834;4.718;2023-04-06T09:41:29;18.70;49.80
13928;DHT22;7036;50.834;4.718;2023-04-06T09:44:03;18.70;49.80
13928;DHT22;7036;50.834;4.718;2023-04-06T09:46:30;18.60;49.70
13928;DHT22;7036;50.834;4.718;2023-04-06T09:48:57;18.70;49.80
13928;DHT22;7036;50.834;4.718;2023-04-06T09:51:25;18.70;49.80
13928;DHT22;7036;50.834;4.718;2023-04-06T09:53:53;18.70;49.80
13928;DHT22;7036;50.834;4.718;2023-04-06T09:56:23;18.70;49.90
13928;DHT22;7036;50.834;4.718;2023-04-06T09:58:49;18.70;49.90
13928;DHT22;7036;50.834;4.718;2023-04-06T10:01:18;18.70;49.90
13928;DHT22;7036;50.834;4.718;2023-04-06T10:06:14;18.70;49.80
13928;DHT22;7036;50.834;4.718;2023-04-06T10:08:44;18.60;50.20
13928;DHT22;7036;50.834;4.718;2023-04-06T10:11:10;18.60;50.10
13928;DHT22;7036;50.834;4.718;2023-04-06T10:13:37;18.60;50.30
13928;DHT22;7036;50.834;4.718;2023-04-06T10:16:06;18.60;50.30
13928;DHT22;7036;50.834;4.718;2023-04-06T10:18:34;18.60;50.30
13928;DHT22;7036;50.834;4.718;2023-04-06T10:21:06;18.60;50.10
13928;DHT22;7036;50.834;4.718;2023-04-06T10:26:22;18.70;50.20
13928;DHT22;7036;50.834;4.718;2023-04-06T10:28:49;18.70;50.10
13928;DHT22;7036;50.834;4.718;2023-04-06T10:31:27;18.70;50.20
13928;DHT22;7036;50.834;4.718;2023-04-06T10:33:55;18.70;50.70
13928;DHT22;7036;50.834;4.718;2023-04-06T10:36:28;18.80;50.40
13928;DHT22;7036;50.834;4.718;2023-04-06T10:38:55;18.80;50.30
13928;DHT22;7036;50.834;4.718;2023-04-06T10:41:21;18.80;50.20
13928;DHT22;7036;50.834;4.718;2023-04-06T10:43:57;18.80;50.40
13928;DHT22;7036;50.834;4.718;2023-04-06T10:46:29;18.80;50.30
13928;DHT22;7036;50.834;4.718;2023-04-06T10:48:55;18.80;50.40
13928;DHT22;7036;50.834;4.718;2023-04-06T10:51:25;18.80;50.40
13928;DHT22;7036;50.834;4.718;2023-04-06T10:53:49;18.80;50.70
13928;DHT22;7036;50.834;4.718;2023-04-06T10:56:17;18.90;51.30
13928;DHT22;7036;50.834;4.718;2023-04-06T10:58:48;18.90;50.70
13928;DHT22;7036;50.834;4.718;2023-04-06T11:01:17;18.90;50.90
13928;DHT22;7036;50.834;4.718;2023-04-06T11:03:47;18.90;50.80
13928;DHT22;7036;50.834;4.718;2023-04-06T11:06:20;18.90;50.90
13928;DHT22;7036;50.834;4.718;2023-04-06T11:08:46;18.90;51.00
13928;DHT22;7036;50.834;4.718;2023-04-06T11:11:15;18.90;51.00
13928;DHT22;7036;50.834;4.718;2023-04-06T11:14:04;18.90;51.00
13928;DHT22;7036;50.834;4.718;2023-04-06T11:16:17;18.90;51.20
13928;DHT22;7036;50.834;4.718;2023-04-06T11:18:48;18.90;51.00
13928;DHT22;7036;50.834;4.718;2023-04-06T11:21:14;18.90;51.10
13928;DHT22;7036;50.834;4.718;2023-04-06T11:23:41;18.90;51.20
13928;DHT22;7036;50.834;4.718;2023-04-06T11:26:12;18.90;51.10
13928;DHT22;7036;50.834;4.718;2023-04-06T11:28:38;18.90;51.20
13928;DHT22;7036;50.834;4.718;2023-04-06T11:31:06;19.00;51.50
13928;DHT22;7036;50.834;4.718;2023-04-06T11:33:37;18.90;51.40
13928;DHT22;7036;50.834;4.718;2023-04-06T11:36:03;19.00;52.20
13928;DHT22;7036;50.834;4.718;2023-04-06T11:38:31;19.00;51.70
13928;DHT22;7036;50.834;4.718;2023-04-06T11:40:58;19.00;51.50
13928;DHT22;7036;50.834;4.718;2023-04-06T11:43:29;19.00;51.80
13928;DHT22;7036;50.834;4.718;2023-04-06T11:46:01;19.00;51.80
13928;DHT22;7036;50.834;4.718;2023-04-06T11:48:27;19.00;51.80
13928;DHT22;7036;50.834;4.718;2023-04-06T11:50:57;19.00;51.90
13928;DHT22;7036;50.834;4.718;2023-04-06T11:53:24;19.00;51.90
13928;DHT22;7036;50.834;4.718;2023-04-06T11:55:52;19.00;52.20
13928;DHT22;7036;50.834;4.718;2023-04-06T11:58:19;19.00;51.80
13928;DHT22;7036;50.834;4.718;2023-04-06T12:00:46;19.10;51.10
13928;DHT22;7036;50.834;4.718;2023-04-06T12:03:14;19.00;52.20
13928;DHT22;7036;50.834;4.718;2023-04-06T12:05:43;19.00;52.10
13928;DHT22;7036;50.834;4.718;2023-04-06T12:08:09;19.00;52.00
13928;DHT22;7036;50.834;4.718;2023-04-06T12:10:37;19.00;51.90
13928;DHT22;7036;50.834;4.718;2023-04-06T12:13:04;19.00;51.90
13928;DHT22;7036;50.834;4.718;2023-04-06T12:15:32;19.10;52.10
13928;DHT22;7036;50.834;4.718;2023-04-06T12:18:00;19.10;52.20
13928;DHT22;7036;50.834;4.718;2023-04-06T12:20:27;19.00;52.00
13928;DHT22;7036;50.834;4.718;2023-04-06T12:22:55;19.10;52.10
13928;DHT22;7036;50.834;4.718;2023-04-06T12:25:22;19.10;52.00
13928;DHT22;7036;50.834;4.718;2023-04-06T12:27:50;19.10;52.00
13928;DHT22;7036;50.834;4.718;2023-04-06T12:30:17;19.10;52.00
13928;DHT22;7036;50.834;4.718;2023-04-06T12:32:45;19.10;51.90
13928;DHT22;7036;50.834;4.718;2023-04-06T12:35:13;19.10;52.20
13928;DHT22;7036;50.834;4.718;2023-04-06T12:37:41;19.10;52.00
13928;DHT22;7036;50.834;4.718;2023-04-06T12:40:08;19.10;51.80
13928;DHT22;7036;50.834;4.718;2023-04-06T12:42:36;19.10;51.80
13928;DHT22;7036;50.834;4.718;2023-04-06T12:45:03;19.10;51.90
13928;DHT22;7036;50.834;4.718;2023-04-06T12:47:30;19.10;51.90
13928;DHT22;7036;50.834;4.718;2023-04-06T12:49:57;19.10;51.90
13928;DHT22;7036;50.834;4.718;2023-04-06T12:52:24;19.10;51.90
13928;DHT22;7036;50.834;4.718;2023-04-06T12:54:52;19.10;52.10
13928;DHT22;7036;50.834;4.718;2023-04-06T12:57:20;19.10;52.00
13928;DHT22;7036;50.834;4.718;2023-04-06T12:59:47;19.10;51.80
13928;DHT22;7036;50.834;4.718;2023-04-06T13:02:15;19.10;51.90
13928;DHT22;7036;50.834;4.718;2023-04-06T13:04:43;19.10;51.80
13928;DHT22;7036;50.834;4.718;2023-04-06T13:07:11;19.10;51.90
13928;DHT22;7036;50.834;4.718;2023-04-06T13:09:38;19.10;51.80
13928;DHT22;7036;50.834;4.718;2023-04-06T13:12:06;19.10;52.50
13928;DHT22;7036;50.834;4.718;2023-04-06T13:14:33;19.10;52.40
13928;DHT22;7036;50.834;4.718;2023-04-06T13:17:01;19.10;52.00
13928;DHT22;7036;50.834;4.718;2023-04-06T13:19:28;19.10;51.80
13928;DHT22;7036;50.834;4.718;2023-04-06T13:21:56;19.10;52.10
13928;DHT22;7036;50.834;4.718;2023-04-06T13:24:24;19.10;52.00
13928;DHT22;7036;50.834;4.718;2023-04-06T13:26:52;19.10;52.10
13928;DHT22;7036;50.834;4.718;2023-04-06T13:29:18;19.10;52.30
13928;DHT22;7036;50.834;4.718;2023-04-06T13:31:46;19.10;52.50
13928;DHT22;7036;50.834;4.718;2023-04-06T13:34:13;19.10;52.50
13928;DHT22;7036;50.834;4.718;2023-04-06T13:36:40;19.10;52.50
13928;DHT22;7036;50.834;4.718;2023-04-06T13:39:07;19.10;52.50
13928;DHT22;7036;50.834;4.718;2023-04-06T13:41:35;19.10;52.60
13928;DHT22;7036;50.834;4.718;2023-04-06T13:44:02;19.20;52.70
13928;DHT22;7036;50.834;4.718;2023-04-06T13:46:30;19.20;52.80
13928;DHT22;7036;50.834;4.718;2023-04-06T13:48:57;19.20;52.60
13928;DHT22;7036;50.834;4.718;2023-04-06T13:51:25;19.20;52.60
13928;DHT22;7036;50.834;4.718;2023-04-06T13:53:52;19.20;52.50
13928;DHT22;7036;50.834;4.718;2023-04-06T13:56:20;19.20;52.60
13928;DHT22;7036;50.834;4.718;2023-04-06T13:58:49;19.20;52.60
13928;DHT22;7036;50.834;4.718;2023-04-06T14:01:16;19.20;52.50
13928;DHT22;7036;50.834;4.718;2023-04-06T14:03:44;19.20;52.50
13928;DHT22;7036;50.834;4.718;2023-04-06T14:06:11;19.20;52.50
13928;DHT22;7036;50.834;4.718;2023-04-06T14:08:38;19.20;52.50
13928;DHT22;7036;50.834;4.718;2023-04-06T14:11:05;19.20;52.40
13928;DHT22;7036;50.834;4.718;2023-04-06T14:13:33;19.20;52.40
13928;DHT22;7036;50.834;4.718;2023-04-06T14:16:01;19.20;52.40
13928;DHT22;7036;50.834;4.718;2023-04-06T14:18:28;19.20;52.20
13928;DHT22;7036;50.834;4.718;2023-04-06T14:20:55;19.20;52.40
13928;DHT22;7036;50.834;4.718;2023-04-06T14:23:23;19.10;52.30
13928;DHT22;7036;50.834;4.718;2023-04-06T14:25:51;19.10;52.30
13928;DHT22;7036;50.834;4.718;2023-04-06T14:28:17;19.10;52.50
13928;DHT22;7036;50.834;4.718;2023-04-06T14:30:44;19.10;52.50
13928;DHT22;7036;50.834;4.718;2023-04-06T14:33:11;19.10;52.50
13928;DHT22;7036;50.834;4.718;2023-04-06T14:35:39;19.00;52.40
13928;DHT22;7036;50.834;4.718;2023-04-06T14:38:06;19.10;52.50
13928;DHT22;7036;50.834;4.718;2023-04-06T14:40:34;19.00;52.50
13928;DHT22;7036;50.834;4.718;2023-04-06T14:43:01;19.00;52.60
13928;DHT22;7036;50.834;4.718;2023-04-06T14:45:29;19.00;52.50
13928;DHT22;7036;50.834;4.718;2023-04-06T14:47:55;19.00;52.50
13928;DHT22;7036;50.834;4.718;2023-04-06T14:50:23;19.00;52.50
13928;DHT22;7036;50.834;4.718;2023-04-06T14:52:50;19.00;52.50
13928;DHT22;7036;50.834;4.718;2023-04-06T14:55:18;19.00;52.60
13928;DHT22;7036;50.834;4.718;2023-04-06T14:57:45;19.00;52.50
13928;DHT22;7036;50.834;4.718;2023-04-06T15:00:12;19.00;52.50
13928;DHT22;7036;50.834;4.718;2023-04-06T15:02:39;19.00;52.50
13928;DHT22;7036;50.834;4.718;2023-04-06T15:05:08;19.00;52.70
13928;DHT22;7036;50.834;4.718;2023-04-06T15:07:35;19.00;52.70
13928;DHT22;7036;50.834;4.718;2023-04-06T15:10:02;19.00;52.60
13928;DHT22;7036;50.834;4.718;2023-04-06T15:12:29;18.90;52.50
13928;DHT22;7036;50.834;4.718;2023-04-06T15:14:56;18.90;52.60
13928;DHT22;7036;50.834;4.718;2023-04-06T15:17:23;18.90;52.00
13928;DHT22;7036;50.834;4.718;2023-04-06T15:19:50;18.90;52.60
13928;DHT22;7036;50.834;4.718;2023-04-06T15:22:18;18.90;52.80
13928;DHT22;7036;50.834;4.718;2023-04-06T15:24:45;18.90;52.70
13928;DHT22;7036;50.834;4.718;2023-04-06T15:27:13;18.90;52.90
13928;DHT22;7036;50.834;4.718;2023-04-06T15:29:40;19.00;52.80
13928;DHT22;7036;50.834;4.718;2023-04-06T15:32:07;19.00;52.80
13928;DHT22;7036;50.834;4.718;2023-04-06T15:34:34;19.00;52.90
13928;DHT22;7036;50.834;4.718;2023-04-06T15:37:02;19.00;53.20
13928;DHT22;7036;50.834;4.718;2023-04-06T15:39:31;19.00;53.30
13928;DHT22;7036;50.834;4.718;2023-04-06T15:41:58;19.00;53.20
13928;DHT22;7036;50.834;4.718;2023-04-06T15:44:25;19.00;53.30
13928;DHT22;7036;50.834;4.718;2023-04-06T15:46:52;19.10;53.40
13928;DHT22;7036;50.834;4.718;2023-04-06T15:49:20;19.20;54.10
13928;DHT22;7036;50.834;4.718;2023-04-06T15:51:48;19.20;54.20
13928;DHT22;7036;50.834;4.718;2023-04-06T15:54:16;19.20;54.30